Time;durP1;ratioP1;P1;durP2;ratioP2;P2;SDS_P1;SDS_P2;PMS_P1;PMS_P2;Temp;Humidity;BMP_temperature;BMP_pressure;BME280_temperature;BME280_humidity;BME280_pressure;Samples;Min_cycle;Max_cycle;Signal;HPM_P1;HPM_P2
2022/12/06 00:01:24;;;;;;;6.75;2.65;;;25.70;91.80;;;;;;5070972;28;20452;-80
2022/12/06 00:03:54;;;;;;;4.50;2.30;;;25.80;91.00;;;;;;5070910;28;20406;-82
2022/12/06 00:06:22;;;;;;;5.40;2.47;;;25.80;90.00;;;;;;5071040;28;20371;-78
2022/12/06 00:08:51;;;;;;;5.47;2.40;;;26.30;87.20;;;;;;5070325;28;20398;-86
2022/12/06 00:11:23;;;;;;;4.95;2.40;;;26.60;86.90;;;;;;5070189;28;20438;-83
2022/12/06 00:13:57;;;;;;;5.70;2.60;;;26.40;84.70;;;;;;5069990;28;20396;-81
2022/12/06 00:16:25;;;;;;;6.33;2.40;;;26.30;86.00;;;;;;5051929;28;20379;-78
2022/12/06 00:18:53;;;;;;;6.75;2.40;;;26.40;85.20;;;;;;5069677;28;20386;-85
2022/12/06 00:21:34;;;;;;;4.38;2.10;;;26.60;83.30;;;;;;5069527;28;20393;-85
2022/12/06 00:24:07;;;;;;;4.20;2.30;;;26.90;81.80;;;;;;5070283;28;20381;-87
2022/12/06 00:26:39;;;;;;;5.17;2.23;;;26.70;80.90;;;;;;5070345;28;20457;-84
2022/12/06 00:29:08;;;;;;;5.68;2.30;;;26.90;81.50;;;;;;5069412;28;20398;-78
2022/12/06 00:31:35;;;;;;;3.42;1.80;;;27.10;80.70;;;;;;5069294;28;20370;-83
2022/12/06 00:34:03;;;;;;;4.72;2.10;;;27.30;79.80;;;;;;5069271;28;20370;-79
2022/12/06 00:36:36;;;;;;;5.72;2.20;;;27.70;77.90;;;;;;5069334;28;20900;-87
2022/12/06 00:39:06;;;;;;;4.57;2.08;;;27.90;76.40;;;;;;5068453;28;20381;-83
2022/12/06 00:41:33;;;;;;;5.18;2.10;;;27.90;74.00;;;;;;5069618;28;20462;-78
2022/12/06 00:44:00;;;;;;;3.85;1.80;;;28.00;74.50;;;;;;5068961;28;20381;-78
2022/12/06 00:46:29;;;;;;;3.30;1.80;;;28.20;73.90;;;;;;5068984;28;20378;-83
2022/12/06 00:48:58;;;;;;;4.03;2.00;;;28.40;72.20;;;;;;5068861;28;20434;-79
2022/12/06 00:51:28;;;;;;;4.90;2.10;;;28.60;72.30;;;;;;5050944;28;20377;-88
2022/12/06 00:53:55;;;;;;;6.53;2.10;;;28.40;70.30;;;;;;5069077;28;20382;-84
2022/12/06 00:56:22;;;;;;;3.58;1.95;;;28.10;70.60;;;;;;5069471;28;20765;-80
2022/12/06 00:58:50;;;;;;;3.25;1.85;;;27.70;70.40;;;;;;5068892;28;20456;-79
2022/12/06 01:01:20;;;;;;;3.97;1.90;;;27.30;71.30;;;;;;5068863;28;20399;-78
2022/12/06 01:03:52;;;;;;;3.72;1.80;;;27.10;71.90;;;;;;5068817;28;20378;-79
2022/12/06 01:06:22;;;;;;;3.05;1.77;;;27.20;73.40;;;;;;5069012;28;20361;-79
2022/12/06 01:08:49;;;;;;;4.35;2.00;;;27.30;71.90;;;;;;5068849;28;20398;-84
2022/12/06 01:11:17;;;;;;;4.32;2.10;;;27.20;71.70;;;;;;5068762;28;20374;-79
2022/12/06 01:13:44;;;;;;;3.73;2.17;;;27.10;69.90;;;;;;5068658;28;20919;-80
2022/12/06 01:16:14;;;;;;;3.90;1.77;;;26.90;72.20;;;;;;5068600;28;20366;-80
2022/12/06 01:18:42;;;;;;;3.00;1.70;;;26.50;72.50;;;;;;5068550;28;20381;-81
2022/12/06 01:21:14;;;;;;;5.25;1.95;;;26.20;73.20;;;;;;5069070;28;20453;-78
2022/12/06 01:23:43;;;;;;;5.75;1.85;;;25.90;74.10;;;;;;5068522;28;20368;-83
2022/12/06 01:26:37;;;;;;;5.70;2.10;;;25.80;73.80;;;;;;5068627;28;20381;-79
2022/12/06 01:29:04;;;;;;;3.05;1.75;;;25.60;75.10;;;;;;5068372;28;20488;-84
2022/12/06 01:31:32;;;;;;;3.75;1.90;;;25.60;76.40;;;;;;5068496;28;20375;-84
2022/12/06 01:33:59;;;;;;;3.33;1.90;;;25.80;74.80;;;;;;5068568;28;20378;-86
2022/12/06 01:36:26;;;;;;;4.80;1.90;;;25.90;74.60;;;;;;5069503;28;20393;-86
2022/12/06 01:38:56;;;;;;;3.20;1.90;;;25.90;74.40;;;;;;5069437;28;20366;-78
2022/12/06 01:41:25;;;;;;;4.90;1.85;;;25.70;75.10;;;;;;5069342;28;20371;-84
2022/12/06 01:43:53;;;;;;;2.88;1.60;;;25.50;76.10;;;;;;5068984;28;20507;-79
2022/12/06 01:46:55;;;;;;;4.13;1.70;;;25.50;76.10;;;;;;5068270;28;20445;-78
2022/12/06 01:49:28;;;;;;;2.60;1.63;;;25.50;76.30;;;;;;4987726;28;20428;-82
2022/12/06 01:52:00;;;;;;;4.07;1.70;;;25.20;76.20;;;;;;4991639;28;20420;-83
2022/12/06 01:54:28;;;;;;;2.92;1.60;;;25.70;76.30;;;;;;4991672;28;20908;-78
2022/12/06 01:56:56;;;;;;;3.90;1.70;;;25.60;75.20;;;;;;4991142;28;20400;-81
2022/12/06 01:59:24;;;;;;;2.75;1.63;;;25.60;75.50;;;;;;4990943;28;20412;-84
2022/12/06 02:01:52;;;;;;;6.07;1.75;;;25.80;77.20;;;;;;4991067;28;20377;-82
2022/12/06 02:04:19;;;;;;;3.40;1.63;;;26.70;74.60;;;;;;4991108;28;20407;-83
2022/12/06 02:06:47;;;;;;;3.92;1.58;;;27.50;72.70;;;;;;4991016;28;20394;-85
2022/12/06 02:09:16;;;;;;;5.28;1.70;;;28.00;71.80;;;;;;4990773;28;21051;-90
2022/12/06 02:11:44;;;;;;;3.55;1.50;;;28.10;70.80;;;;;;4991137;28;20391;-79
2022/12/06 02:14:15;;;;;;;4.95;1.67;;;27.60;70.80;;;;;;4991273;28;20389;-86
2022/12/06 02:17:00;;;;;;;4.35;1.73;;;27.60;71.00;;;;;;4991020;28;20784;-85
2022/12/06 02:20:14;;;;;;;4.63;1.60;;;28.00;69.80;;;;;;4991236;28;20459;-86
2022/12/06 02:22:47;;;;;;;2.70;1.50;;;28.60;70.00;;;;;;4933476;28;20392;-89
2022/12/06 02:25:19;;;;;;;4.30;1.58;;;29.60;66.60;;;;;;4991045;28;20799;-79
2022/12/06 02:28:19;;;;;;;3.65;1.55;;;29.90;65.90;;;;;;4991407;28;20921;-80
2022/12/06 02:30:51;;;;;;;4.03;1.55;;;30.30;66.40;;;;;;4994485;28;20825;-81
2022/12/06 02:33:34;;;;;;;3.17;1.60;;;30.40;64.80;;;;;;4997636;28;20853;-79
2022/12/06 02:36:20;;;;;;;4.03;1.50;;;30.80;63.30;;;;;;4998504;28;20515;-82
2022/12/06 02:38:52;;;;;;;3.28;1.50;;;30.80;63.50;;;;;;5000375;28;20791;-86
2022/12/06 02:41:43;;;;;;;3.58;1.60;;;30.00;63.10;;;;;;4994921;28;20380;-81
2022/12/06 02:44:23;;;;;;;5.25;1.80;;;29.10;64.10;;;;;;4976863;28;20897;-89
2022/12/06 02:46:52;;;;;;;3.70;1.65;;;28.80;65.00;;;;;;4990972;28;20372;-84
2022/12/06 02:49:22;;;;;;;2.75;1.33;;;29.30;65.70;;;;;;4991005;28;20419;-89
2022/12/06 02:51:51;;;;;;;3.50;1.50;;;29.90;65.00;;;;;;4990284;28;20373;-83
2022/12/06 02:54:19;;;;;;;4.18;1.50;;;30.40;64.30;;;;;;5060317;28;20382;-79
2022/12/06 02:56:49;;;;;;;3.80;1.40;;;30.80;62.50;;;;;;5071754;28;20374;-85
2022/12/06 02:59:16;;;;;;;2.93;1.50;;;31.30;61.60;;;;;;5071383;28;20762;-88
2022/12/06 03:01:55;;;;;;;3.28;1.65;;;31.20;62.20;;;;;;5069746;28;20440;-80
2022/12/06 03:04:47;;;;;;;2.17;1.33;;;31.00;61.40;;;;;;5072123;28;20965;-86
2022/12/06 03:07:24;;;;;;;2.88;1.30;;;31.00;61.80;;;;;;5072512;28;20459;-83
2022/12/06 03:10:00;;;;;;;3.20;1.50;;;31.00;62.50;;;;;;5071465;28;20394;-81
2022/12/06 03:12:50;;;;;;;4.78;1.60;;;31.20;61.50;;;;;;5071699;28;20397;-81
2022/12/06 03:15:33;;;;;;;3.88;1.60;;;31.20;61.10;;;;;;5045270;28;20453;-82
2022/12/06 03:18:30;;;;;;;3.00;1.50;;;30.50;61.70;;;;;;5071371;28;20371;-82
2022/12/06 03:21:14;;;;;;;4.45;1.70;;;30.30;61.80;;;;;;5071276;28;20833;-82
2022/12/06 03:23:47;;;;;;;3.63;1.63;;;30.90;61.70;;;;;;5071151;28;20377;-87
2022/12/06 03:26:18;;;;;;;3.35;1.67;;;31.50;60.40;;;;;;5071473;28;20392;-80
2022/12/06 03:28:48;;;;;;;3.20;1.30;;;32.00;59.60;;;;;;5071163;28;20408;-86
2022/12/06 03:31:15;;;;;;;3.85;1.50;;;31.70;60.20;;;;;;5070995;28;20480;-83
2022/12/06 03:34:34;;;;;;;3.55;1.40;;;31.40;59.80;;;;;;5070872;28;20379;-87
2022/12/06 03:37:03;;;;;;;3.45;1.25;;;31.30;60.50;;;;;;4989822;28;20481;-80
2022/12/06 03:39:40;;;;;;;4.10;1.30;;;31.50;59.20;;;;;;4989458;28;20960;-88
2022/12/06 03:42:07;;;;;;;2.83;1.30;;;30.90;60.20;;;;;;4989534;28;20393;-84
2022/12/06 03:44:34;;;;;;;5.07;1.40;;;31.10;60.00;;;;;;4989186;28;20396;-81
2022/12/06 03:47:27;;;;;;;4.68;1.25;;;31.20;60.10;;;;;;4989284;28;20404;-86
2022/12/06 03:49:59;;;;;;;4.18;1.20;;;30.80;58.90;;;;;;4988986;28;20483;-82
2022/12/06 03:52:28;;;;;;;4.82;1.10;;;29.70;59.80;;;;;;4972678;28;20477;-84
2022/12/06 03:54:55;;;;;;;2.75;1.30;;;29.60;60.80;;;;;;4988953;28;20404;-85
2022/12/06 03:57:23;;;;;;;2.53;1.00;;;30.00;61.10;;;;;;4989496;28;20373;-91
2022/12/06 03:59:50;;;;;;;3.63;1.17;;;30.50;59.70;;;;;;4988894;28;20437;-79
2022/12/06 04:02:17;;;;;;;4.03;0.93;;;30.80;59.80;;;;;;4989383;28;20508;-85
2022/12/06 04:04:44;;;;;;;2.63;1.10;;;31.30;58.20;;;;;;4989259;28;20397;-92
2022/12/06 04:07:12;;;;;;;3.17;1.10;;;31.30;57.90;;;;;;4989109;28;20392;-89
2022/12/06 04:15:10;;;;;;;2.30;0.95;;;30.40;59.10;;;;;;5070319;28;20385;-91
2022/12/06 04:20:25;;;;;;;1.52;0.90;;;30.40;57.20;;;;;;5070158;28;20369;-86
2022/12/06 04:23:05;;;;;;;2.85;1.00;;;29.10;59.80;;;;;;5069787;28;20444;-85
2022/12/06 04:25:33;;;;;;;2.85;0.95;;;28.30;60.70;;;;;;5069972;28;20476;-88
2022/12/06 04:39:09;;;;;;;2.00;1.00;;;31.00;57.80;;;;;;5027905;28;20445;-83
2022/12/06 04:44:21;;;;;;;1.92;0.90;;;31.60;55.40;;;;;;5027554;28;20373;-84
2022/12/06 04:46:48;;;;;;;2.97;0.95;;;31.50;55.80;;;;;;5027677;28;20727;-84
2022/12/06 04:49:15;;;;;;;2.20;0.80;;;31.60;55.00;;;;;;5024619;28;20405;-83
2022/12/06 04:51:42;;;;;;;2.83;0.90;;;31.50;54.80;;;;;;5026941;28;20382;-76
2022/12/06 04:54:09;;;;;;;2.22;0.88;;;30.80;55.80;;;;;;5027083;28;20430;-82
2022/12/06 04:56:36;;;;;;;2.87;0.90;;;30.20;56.70;;;;;;5026958;28;20516;-82
2022/12/06 04:59:03;;;;;;;3.03;1.10;;;29.10;58.10;;;;;;5026753;28;20510;-80
2022/12/06 05:01:30;;;;;;;2.50;0.90;;;28.40;59.70;;;;;;5027252;28;20460;-82
2022/12/06 05:03:57;;;;;;;2.63;0.90;;;28.20;60.40;;;;;;5026571;28;20435;-78
2022/12/06 05:06:24;;;;;;;1.60;0.83;;;28.20;60.80;;;;;;5026689;28;20447;-80
2022/12/06 05:08:51;;;;;;;2.10;0.80;;;28.60;60.30;;;;;;5067788;28;20493;-84
2022/12/06 05:11:18;;;;;;;2.50;0.90;;;29.10;59.60;;;;;;5068706;28;20385;-83
2022/12/06 05:13:45;;;;;;;2.45;0.90;;;30.00;58.00;;;;;;5068496;28;20402;-83
2022/12/06 05:16:12;;;;;;;2.95;1.00;;;30.50;57.90;;;;;;5068408;28;20387;-82
2022/12/06 05:18:39;;;;;;;2.05;0.90;;;30.80;57.00;;;;;;5068720;28;20370;-82
2022/12/06 05:21:18;;;;;;;2.83;0.83;;;31.00;55.70;;;;;;5068749;28;20374;-82
2022/12/06 05:23:46;;;;;;;2.22;0.93;;;30.40;55.90;;;;;;5068054;28;20370;-80
2022/12/06 05:26:17;;;;;;;3.67;0.98;;;29.50;56.80;;;;;;5068153;28;20445;-81
2022/12/06 05:28:46;;;;;;;2.05;0.82;;;28.60;58.00;;;;;;5068991;28;20757;-84
2022/12/06 05:31:14;;;;;;;2.05;0.88;;;27.90;59.80;;;;;;5068581;28;20397;-77
2022/12/06 05:33:41;;;;;;;1.83;0.75;;;27.90;59.90;;;;;;5068612;28;20453;-78
2022/12/06 05:36:18;;;;;;;1.92;0.80;;;27.80;60.00;;;;;;5068413;28;20457;-77
2022/12/06 05:38:46;;;;;;;2.40;0.80;;;27.60;61.50;;;;;;5068353;28;20365;-82
2022/12/06 05:41:13;;;;;;;1.60;0.80;;;27.80;60.10;;;;;;5068289;28;20441;-82
2022/12/06 05:43:40;;;;;;;2.97;0.90;;;28.00;60.50;;;;;;5068517;28;20402;-82
2022/12/06 05:46:08;;;;;;;1.67;0.70;;;28.70;58.60;;;;;;5068213;28;20373;-82
2022/12/06 05:48:35;;;;;;;2.20;1.00;;;29.60;58.20;;;;;;5050483;28;20398;-83
2022/12/06 05:51:02;;;;;;;2.88;0.80;;;30.20;56.70;;;;;;5068554;28;20374;-82
2022/12/06 05:53:29;;;;;;;1.92;0.80;;;30.20;55.00;;;;;;5068078;28;20370;-81
2022/12/06 05:56:02;;;;;;;3.42;0.93;;;29.20;56.00;;;;;;5068569;28;20507;-78
2022/12/06 05:58:29;;;;;;;1.90;0.90;;;28.40;58.50;;;;;;5068117;28;20842;-79
2022/12/06 06:00:56;;;;;;;2.35;0.80;;;28.10;59.60;;;;;;5067981;28;20436;-78
2022/12/06 06:03:23;;;;;;;2.30;0.70;;;28.40;59.10;;;;;;5068179;28;20853;-77
2022/12/06 06:05:55;;;;;;;2.37;0.90;;;28.10;58.20;;;;;;5067942;28;20375;-77
2022/12/06 06:08:22;;;;;;;2.00;0.93;;;27.70;59.10;;;;;;5068116;28;20424;-75
2022/12/06 06:10:49;;;;;;;3.10;0.80;;;27.00;59.80;;;;;;5068007;28;20382;-82
2022/12/06 06:13:16;;;;;;;3.63;0.90;;;26.80;60.50;;;;;;5068259;28;20458;-78
2022/12/06 06:15:43;;;;;;;9.50;7.37;;;26.70;60.20;;;;;;5067994;28;20815;-82
2022/12/06 06:18:10;;;;;;;50.95;43.80;;;26.40;61.20;;;;;;5067950;28;20393;-83
2022/12/06 06:20:37;;;;;;;5.15;3.50;;;26.10;61.90;;;;;;5067885;28;20395;-77
2022/12/06 06:23:04;;;;;;;11.40;6.07;;;26.20;62.30;;;;;;5049802;28;20793;-81
2022/12/06 06:25:31;;;;;;;11.65;7.00;;;26.20;62.80;;;;;;5067813;28;20374;-80
2022/12/06 06:27:58;;;;;;;3.38;1.40;;;26.10;63.50;;;;;;5067823;28;20407;-80
2022/12/06 06:30:25;;;;;;;3.30;1.17;;;26.20;62.80;;;;;;5068440;28;20823;-83
2022/12/06 06:32:52;;;;;;;4.45;1.92;;;26.00;62.90;;;;;;5049962;28;20872;-84
2022/12/06 06:35:19;;;;;;;3.63;1.40;;;25.90;63.40;;;;;;5067585;28;20379;-79
2022/12/06 06:37:47;;;;;;;3.90;1.10;;;25.70;63.90;;;;;;5070575;28;20366;-82
2022/12/06 06:40:14;;;;;;;2.87;1.20;;;25.60;64.20;;;;;;5071429;28;20385;-83
2022/12/06 06:42:41;;;;;;;3.17;1.15;;;25.80;63.50;;;;;;5071280;28;20376;-84
2022/12/06 06:45:08;;;;;;;3.15;1.10;;;26.40;62.50;;;;;;5071328;28;20404;-81
2022/12/06 06:47:35;;;;;;;5.23;1.60;;;27.00;62.10;;;;;;5071287;28;20382;-82
2022/12/06 06:50:02;;;;;;;4.38;1.40;;;27.60;60.90;;;;;;5071200;28;20940;-80
2022/12/06 06:52:29;;;;;;;2.77;1.33;;;28.00;59.20;;;;;;5071212;28;20412;-82
2022/12/06 06:54:56;;;;;;;2.92;1.20;;;27.80;59.40;;;;;;5071170;28;20382;-84
2022/12/06 06:57:23;;;;;;;3.28;1.38;;;27.20;60.00;;;;;;5071177;28;20366;-85
2022/12/06 06:59:50;;;;;;;3.00;1.10;;;26.40;62.10;;;;;;5070936;28;20450;-83
2022/12/06 07:02:18;;;;;;;4.43;1.15;;;25.90;63.60;;;;;;5070951;28;20377;-80
2022/12/06 07:04:45;;;;;;;3.70;1.50;;;25.50;64.10;;;;;;5071887;28;20377;-85
2022/12/06 07:07:12;;;;;;;2.95;1.40;;;25.00;65.80;;;;;;5071021;28;20378;-81
2022/12/06 07:09:40;;;;;;;4.17;1.70;;;24.60;66.60;;;;;;5071543;28;20425;-82
2022/12/06 07:12:07;;;;;;;5.47;3.17;;;24.20;67.60;;;;;;5073755;28;20366;-77
2022/12/06 07:14:34;;;;;;;4.50;2.07;;;23.90;68.60;;;;;;5075655;28;20374;-80
2022/12/06 07:17:01;;;;;;;5.13;1.40;;;23.70;69.40;;;;;;5057701;28;20460;-79
2022/12/06 07:19:28;;;;;;;7.50;4.40;;;23.50;70.40;;;;;;5075782;28;20460;-80
2022/12/06 07:21:55;;;;;;;3.65;2.00;;;23.30;70.90;;;;;;5076305;28;20447;-79
2022/12/06 07:24:22;;;;;;;4.80;1.50;;;23.20;71.10;;;;;;5078426;28;20366;-83
2022/12/06 07:26:49;;;;;;;4.60;2.08;;;23.10;70.80;;;;;;5077163;28;20370;-77
2022/12/06 07:29:16;;;;;;;3.47;1.13;;;23.30;71.20;;;;;;5077103;28;20413;-79
2022/12/06 07:31:43;;;;;;;3.40;1.80;;;23.50;70.80;;;;;;5075736;28;20377;-81
2022/12/06 07:34:10;;;;;;;5.25;1.25;;;23.70;70.30;;;;;;5072933;28;20376;-84
2022/12/06 07:36:37;;;;;;;4.45;1.15;;;23.70;69.50;;;;;;5070051;28;20370;-83
2022/12/06 07:39:04;;;;;;;3.35;1.20;;;23.70;69.40;;;;;;5070196;28;20915;-82
2022/12/06 07:47:04;;;;;;;4.97;1.13;;;23.90;69.60;;;;;;5070023;28;20369;-79
2022/12/06 07:49:31;;;;;;;4.10;1.20;;;23.90;70.50;;;;;;5069742;28;20394;-81
2022/12/06 07:51:58;;;;;;;4.22;1.00;;;24.20;70.10;;;;;;5069676;28;20854;-79
2022/12/06 07:54:25;;;;;;;3.67;0.98;;;24.30;69.20;;;;;;5069788;28;20389;-80
2022/12/06 07:56:55;;;;;;;3.00;1.20;;;23.90;70.10;;;;;;5072491;28;20397;-81
2022/12/06 07:59:22;;;;;;;3.87;1.10;;;23.50;70.60;;;;;;5069694;28;20397;-78
2022/12/06 08:01:49;;;;;;;4.17;1.30;;;23.10;71.60;;;;;;5069855;28;20432;-79
2022/12/06 08:04:17;;;;;;;6.07;1.30;;;22.70;72.60;;;;;;5069866;28;20416;-86
2022/12/06 08:06:44;;;;;;;3.50;1.17;;;22.50;74.50;;;;;;5069655;28;20406;-80
2022/12/06 08:09:12;;;;;;;3.83;1.20;;;22.30;76.00;;;;;;5069370;28;20432;-82
2022/12/06 08:11:39;;;;;;;6.95;1.10;;;22.30;77.00;;;;;;5069701;28;20380;-83
2022/12/06 08:14:06;;;;;;;5.35;1.27;;;22.30;77.40;;;;;;5071266;28;20373;-79
2022/12/06 08:16:33;;;;;;;4.13;1.30;;;22.10;77.60;;;;;;5070929;28;20378;-83
2022/12/06 08:19:00;;;;;;;5.70;1.20;;;22.00;78.20;;;;;;5069397;28;20401;-76
2022/12/06 08:21:27;;;;;;;3.83;1.10;;;21.90;78.80;;;;;;5069157;28;20385;-76
2022/12/06 08:23:54;;;;;;;6.13;1.60;;;21.80;79.50;;;;;;5051502;28;20386;-82
2022/12/06 08:26:22;;;;;;;3.92;1.10;;;21.60;79.70;;;;;;5069356;28;20421;-78
2022/12/06 08:28:50;;;;;;;4.90;1.40;;;21.50;80.30;;;;;;5069092;28;20592;-79
2022/12/06 08:31:23;;;;;;;5.13;1.30;;;21.40;81.20;;;;;;5069153;28;20870;-81
2022/12/06 08:33:50;;;;;;;4.50;1.27;;;21.30;81.70;;;;;;5069111;28;20386;-81
2022/12/06 08:36:22;;;;;;;4.57;1.13;;;21.10;82.90;;;;;;5069209;28;20382;-80
2022/12/06 08:38:51;;;;;;;5.72;1.30;;;21.10;83.50;;;;;;5069062;28;20376;-82
2022/12/06 08:44:22;;;;;;;6.18;1.30;;;21.00;85.00;;;;;;5071418;28;20385;-82
2022/12/06 08:46:53;;;;;;;5.28;1.23;;;20.90;85.80;;;;;;5069751;28;20391;-80
2022/12/06 08:49:22;;;;;;;4.43;1.45;;;20.80;86.00;;;;;;5069404;28;20892;-78
2022/12/06 08:51:49;;;;;;;6.15;1.48;;;20.80;86.70;;;;;;5068827;28;20792;-80
2022/12/06 08:54:19;;;;;;;4.35;1.30;;;20.70;87.40;;;;;;5068794;28;20366;-78
2022/12/06 08:56:46;;;;;;;6.63;1.35;;;20.60;88.30;;;;;;5068676;28;20523;-79
2022/12/06 08:59:13;;;;;;;5.43;1.43;;;20.50;89.40;;;;;;5068213;28;20738;-78
2022/12/06 09:01:40;;;;;;;4.90;1.48;;;20.50;90.50;;;;;;5069247;28;20391;-82
2022/12/06 09:04:09;;;;;;;4.57;1.35;;;20.50;90.50;;;;;;5068627;28;20382;-79
2022/12/06 09:06:41;;;;;;;6.10;1.40;;;20.50;90.90;;;;;;5068812;28;20431;-79
2022/12/06 09:09:10;;;;;;;6.60;1.20;;;20.40;91.40;;;;;;5068697;28;20826;-81
2022/12/06 09:11:40;;;;;;;4.88;1.40;;;20.30;91.50;;;;;;5068785;28;20363;-81
2022/12/06 09:14:10;;;;;;;4.07;1.30;;;20.70;92.00;;;;;;5068879;28;20929;-80
2022/12/06 09:16:39;;;;;;;6.03;1.42;;;20.20;92.30;;;;;;5068895;28;20378;-78
2022/12/06 09:19:06;;;;;;;5.55;1.40;;;20.10;92.90;;;;;;5068970;28;20739;-81
2022/12/06 09:21:34;;;;;;;6.13;1.75;;;20.10;93.30;;;;;;5068621;28;20711;-81
2022/12/06 09:24:01;;;;;;;5.85;1.70;;;20.10;93.80;;;;;;5065685;28;20374;-79
2022/12/06 09:26:28;;;;;;;5.68;1.42;;;20.10;94.20;;;;;;5070946;28;20386;-77
2022/12/06 09:28:56;;;;;;;5.60;1.47;;;20.00;94.50;;;;;;5070026;28;20447;-78
2022/12/06 09:31:23;;;;;;;6.03;1.60;;;20.10;95.00;;;;;;5069333;28;20873;-79
2022/12/06 09:33:51;;;;;;;6.07;1.40;;;20.00;95.50;;;;;;5051482;28;20396;-79
2022/12/06 09:36:27;;;;;;;6.85;1.58;;;20.00;95.90;;;;;;5069079;28;20389;-79
2022/12/06 09:39:36;;;;;;;5.30;1.70;;;19.90;96.30;;;;;;5070479;28;20358;-79
2022/12/06 09:42:33;;;;;;;5.70;1.60;;;19.90;96.80;;;;;;4988411;28;20381;-78
2022/12/06 09:45:03;;;;;;;6.70;1.65;;;19.80;97.10;;;;;;4989097;28;20381;-80
2022/12/06 09:47:53;;;;;;;4.97;1.40;;;19.70;97.70;;;;;;4989124;28;20385;-79
2022/12/06 09:50:25;;;;;;;6.65;1.60;;;19.60;98.20;;;;;;4988986;28;20427;-78
2022/12/06 09:53:13;;;;;;;6.53;1.55;;;19.50;98.80;;;;;;4989023;28;20383;-78
2022/12/06 09:55:43;;;;;;;5.25;1.55;;;19.50;99.10;;;;;;4988641;28;20849;-80
2022/12/06 09:58:48;;;;;;;5.68;1.70;;;19.50;99.50;;;;;;4988209;28;20385;-78
2022/12/06 10:01:32;;;;;;;8.05;1.55;;;19.40;99.90;;;;;;4988372;28;20897;-80
2022/12/06 10:04:10;;;;;;;5.55;1.50;;;19.40;99.90;;;;;;4988145;28;20399;-82
2022/12/06 10:06:54;;;;;;;7.47;1.70;;;19.30;99.90;;;;;;4987931;28;20791;-82
2022/12/06 10:09:34;;;;;;;5.78;1.60;;;19.30;99.90;;;;;;4971886;28;20858;-79
2022/12/06 10:12:09;;;;;;;6.35;1.55;;;19.30;99.90;;;;;;4991642;28;20844;-79
2022/12/06 10:15:04;;;;;;;7.93;1.70;;;19.30;99.90;;;;;;4991429;28;20373;-81
2022/12/06 10:17:40;;;;;;;5.73;1.70;;;19.30;99.90;;;;;;4991237;28;20380;-83
2022/12/06 10:20:10;;;;;;;6.30;1.50;;;19.20;99.90;;;;;;5073185;28;20358;-78
2022/12/06 10:22:46;;;;;;;5.95;1.65;;;19.20;99.90;;;;;;5073080;28;20386;-81
2022/12/06 10:25:36;;;;;;;6.50;1.70;;;19.20;99.90;;;;;;5073378;28;20443;-80
2022/12/06 10:28:09;;;;;;;5.50;1.80;;;19.20;99.90;;;;;;5072233;28;20366;-80
2022/12/06 10:30:50;;;;;;;6.47;1.70;;;19.20;99.90;;;;;;5072319;28;20378;-81
2022/12/06 10:33:29;;;;;;;6.78;1.60;;;19.10;99.90;;;;;;5072804;28;20457;-79
2022/12/06 10:36:01;;;;;;;10.05;2.08;;;19.10;99.90;;;;;;5072483;28;20865;-83
2022/12/06 10:38:39;;;;;;;6.53;2.00;;;19.00;99.90;;;;;;5072761;28;20777;-79
2022/12/06 10:41:18;;;;;;;7.32;1.80;;;19.00;99.90;;;;;;5072524;28;20437;-82
2022/12/06 10:44:03;;;;;;;8.57;1.95;;;18.90;99.90;;;;;;5071152;28;20450;-79
2022/12/06 10:49:53;;;;;;;8.37;1.80;;;18.90;99.90;;;;;;5071298;28;20428;-81
2022/12/06 10:52:38;;;;;;;6.73;1.73;;;18.80;99.90;;;;;;4989969;28;20392;-79
2022/12/06 10:55:10;;;;;;;9.85;2.30;;;18.80;99.90;;;;;;4989736;28;20377;-81
2022/12/06 10:57:43;;;;;;;10.07;2.03;;;18.70;99.90;;;;;;4990432;28;20793;-81
2022/12/06 11:00:16;;;;;;;8.38;1.92;;;18.70;99.90;;;;;;4989629;28;20427;-79
2022/12/06 11:02:52;;;;;;;9.48;1.88;;;18.70;99.90;;;;;;4989788;28;20385;-78
2022/12/06 11:05:35;;;;;;;7.20;1.90;;;18.70;99.90;;;;;;4989535;28;20389;-79
2022/12/06 11:08:31;;;;;;;7.80;2.03;;;18.70;99.90;;;;;;4989719;28;20365;-79
2022/12/06 11:11:00;;;;;;;11.80;2.50;;;18.60;99.90;;;;;;4989145;28;20389;-78
2022/12/06 11:13:50;;;;;;;9.93;2.13;;;18.60;99.90;;;;;;4989537;28;20490;-80
2022/12/06 11:16:29;;;;;;;6.55;2.20;;;18.50;99.90;;;;;;4989614;28;20784;-78
2022/12/06 11:19:01;;;;;;;8.40;2.03;;;18.50;99.90;;;;;;4989381;28;20427;-79
2022/12/06 11:21:40;;;;;;;6.75;1.98;;;18.40;99.90;;;;;;4989377;28;20424;-80
2022/12/06 11:24:15;;;;;;;8.90;2.08;;;18.40;99.90;;;;;;4988863;28;20396;-79
2022/12/06 11:27:04;;;;;;;9.50;2.10;;;18.30;99.90;;;;;;4989439;28;20403;-81
2022/12/06 11:29:31;;;;;;;6.00;1.87;;;18.30;99.90;;;;;;5036070;28;20907;-80
2022/12/06 11:32:07;;;;;;;6.77;1.67;;;18.30;99.90;;;;;;5050414;28;20396;-82
2022/12/06 11:34:53;;;;;;;5.07;1.65;;;18.30;99.90;;;;;;5050385;28;20419;-80
2022/12/06 11:37:23;;;;;;;7.63;1.80;;;18.30;99.90;;;;;;5051010;28;20372;-80
2022/12/06 11:39:55;;;;;;;9.25;1.90;;;18.30;99.90;;;;;;5050411;28;20411;-82
2022/12/06 11:42:26;;;;;;;7.45;1.73;;;18.30;99.90;;;;;;5050249;28;20514;-82
2022/12/06 11:44:59;;;;;;;7.35;1.90;;;18.40;99.90;;;;;;5050261;28;20382;-79
2022/12/06 11:47:26;;;;;;;8.32;1.83;;;18.40;99.90;;;;;;5048979;28;20388;-78
2022/12/06 11:49:55;;;;;;;8.60;2.30;;;18.50;99.90;;;;;;5050140;28;20404;-79
2022/12/06 11:52:43;;;;;;;7.00;1.80;;;18.50;99.90;;;;;;5050089;28;20426;-78
2022/12/06 11:55:21;;;;;;;6.70;1.90;;;18.50;99.90;;;;;;5050016;28;20356;-78
2022/12/06 11:57:54;;;;;;;9.32;1.80;;;18.50;99.90;;;;;;5050080;28;20447;-79
2022/12/06 12:00:23;;;;;;;9.10;2.07;;;18.60;99.90;;;;;;5065027;28;20894;-80
2022/12/06 12:02:53;;;;;;;14.25;2.35;;;18.70;99.90;;;;;;5070230;28;20374;-83
2022/12/06 12:05:29;;;;;;;8.60;2.07;;;18.70;99.90;;;;;;5069854;28;20386;-80
2022/12/06 12:08:03;;;;;;;9.27;2.13;;;18.80;99.90;;;;;;5069629;28;20366;-78
2022/12/06 12:10:40;;;;;;;7.30;1.95;;;18.90;99.90;;;;;;5069609;28;20433;-78
2022/12/06 12:16:01;;;;;;;9.23;1.83;;;19.00;99.90;;;;;;5069578;28;20416;-81
2022/12/06 12:18:31;;;;;;;10.47;2.00;;;19.00;99.90;;;;;;5069868;28;20365;-77
2022/12/06 12:20:59;;;;;;;8.63;2.20;;;19.00;99.90;;;;;;5069414;28;20467;-80
2022/12/06 12:23:33;;;;;;;7.03;1.80;;;19.00;99.90;;;;;;5069202;28;20367;-81
2022/12/06 12:26:17;;;;;;;8.90;1.85;;;18.90;99.90;;;;;;5069452;28;20802;-82
2022/12/06 12:28:46;;;;;;;8.55;2.10;;;18.90;99.90;;;;;;5069680;28;20455;-79
2022/12/06 12:31:21;;;;;;;6.87;1.90;;;18.80;99.90;;;;;;5069572;28;20409;-81
2022/12/06 12:34:08;;;;;;;9.38;2.00;;;18.70;99.90;;;;;;5068534;28;20679;-81
2022/12/06 12:36:36;;;;;;;7.85;1.80;;;18.60;99.90;;;;;;5069008;28;20795;-83
2022/12/06 12:39:03;;;;;;;7.53;1.70;;;18.50;99.90;;;;;;5069116;28;20374;-81
2022/12/06 12:41:33;;;;;;;9.27;1.85;;;18.30;99.90;;;;;;5069055;28;20374;-82
2022/12/06 12:44:05;;;;;;;6.80;1.75;;;18.20;99.90;;;;;;5069634;28;20857;-84
2022/12/06 12:46:54;;;;;;;8.23;1.70;;;18.10;99.90;;;;;;5068904;28;20945;-80
2022/12/06 12:49:26;;;;;;;6.38;1.67;;;17.90;99.90;;;;;;5051929;28;20421;-79
2022/12/06 12:51:54;;;;;;;10.25;1.83;;;17.80;99.90;;;;;;5068845;28;20446;-77
2022/12/06 12:54:30;;;;;;;7.35;1.80;;;17.80;99.90;;;;;;5068956;28;20439;-78
2022/12/06 12:56:59;;;;;;;7.10;1.70;;;17.80;99.90;;;;;;5068848;28;20365;-78
2022/12/06 12:59:31;;;;;;;6.00;1.85;;;17.70;99.90;;;;;;5068498;28;20750;-77
2022/12/06 13:02:22;;;;;;;8.73;2.08;;;17.60;99.90;;;;;;5069169;28;20405;-78
2022/12/06 13:04:58;;;;;;;7.30;1.70;;;17.50;99.90;;;;;;5068642;28;20393;-79
2022/12/06 13:07:30;;;;;;;9.32;1.98;;;17.40;99.90;;;;;;5068758;28;20366;-78
2022/12/06 13:10:06;;;;;;;5.57;1.90;;;17.40;99.90;;;;;;5068567;28;20874;-77
2022/12/06 13:12:53;;;;;;;10.88;1.98;;;17.30;99.90;;;;;;5068431;28;20825;-81
2022/12/06 13:15:35;;;;;;;7.55;1.92;;;17.30;99.90;;;;;;5068665;28;20914;-76
2022/12/06 13:18:46;;;;;;;6.75;1.75;;;17.30;99.90;;;;;;5068586;28;20366;-78
2022/12/06 13:21:45;;;;;;;7.90;1.80;;;17.20;99.90;;;;;;4987130;28;20389;-80
2022/12/06 13:24:12;;;;;;;9.37;2.00;;;17.20;99.90;;;;;;4987548;28;20769;-79
2022/12/06 13:26:56;;;;;;;8.15;1.80;;;17.20;99.90;;;;;;4987325;28;20490;-79
2022/12/06 13:29:31;;;;;;;9.73;1.90;;;17.20;99.90;;;;;;4987698;28;20435;-79
2022/12/06 13:32:05;;;;;;;10.23;1.98;;;17.20;99.90;;;;;;4987829;28;20369;-78
2022/12/06 13:34:41;;;;;;;7.07;2.00;;;17.20;99.90;;;;;;4970756;28;20478;-81
2022/12/06 13:37:42;;;;;;;8.70;2.00;;;17.20;99.90;;;;;;4987199;28;20380;-82
2022/12/06 13:40:33;;;;;;;8.20;1.88;;;17.30;99.90;;;;;;4987109;28;20456;-79
2022/12/06 13:43:01;;;;;;;8.45;2.33;;;17.30;99.90;;;;;;4986902;28;20393;-80
2022/12/06 13:45:47;;;;;;;8.93;2.00;;;17.40;99.90;;;;;;4988086;28;20381;-78
2022/12/06 13:48:53;;;;;;;8.10;1.90;;;17.40;99.90;;;;;;4990890;28;20476;-79
2022/12/06 13:51:36;;;;;;;7.67;1.80;;;17.60;99.90;;;;;;4971646;28;20720;-78